sensor_id;sensor_type;location;lat;lon;timestamp;pressure;altitude;pressure_sealevel;temperature;humidity
64292;BME280;50628;51.008;13.658;2023-04-03T00:03:03;100748.75;;;2.50;100.00
64292;BME280;50628;51.008;13.658;2023-04-03T00:08:05;100752.59;;;2.63;100.00
64292;BME280;50628;51.008;13.658;2023-04-03T00:13:09;100746.00;;;2.54;100.00
64292;BME280;50628;51.008;13.658;2023-04-03T00:18:11;100761.84;;;2.42;100.00
64292;BME280;50628;51.008;13.658;2023-04-03T00:23:13;100763.69;;;2.37;100.00
64292;BME280;50628;51.008;13.658;2023-04-03T00:28:17;100774.34;;;2.25;100.00
64292;BME280;50628;51.008;13.658;2023-04-03T00:33:19;100776.00;;;2.26;100.00
64292;BME280;50628;51.008;13.658;2023-04-03T00:38:22;100778.69;;;2.23;100.00
64292;BME280;50628;51.008;13.658;2023-04-03T00:43:26;100774.00;;;2.07;100.00
64292;BME280;50628;51.008;13.658;2023-04-03T00:48:31;100772.88;;;2.16;100.00
64292;BME280;50628;51.008;13.658;2023-04-03T00:53:37;100775.72;;;2.07;100.00
64292;BME280;50628;51.008;13.658;2023-04-03T00:58:44;100771.56;;;2.01;100.00
64292;BME280;50628;51.008;13.658;2023-04-03T01:03:49;100775.88;;;2.01;100.00
64292;BME280;50628;51.008;13.658;2023-04-03T01:08:52;100786.47;;;1.90;100.00
64292;BME280;50628;51.008;13.658;2023-04-03T01:13:56;100785.41;;;1.97;100.00
64292;BME280;50628;51.008;13.658;2023-04-03T01:19:00;100791.72;;;1.85;100.00
64292;BME280;50628;51.008;13.658;2023-04-03T01:24:14;100791.69;;;1.87;100.00
64292;BME280;50628;51.008;13.658;2023-04-03T01:29:19;100789.28;;;1.81;100.00
64292;BME280;50628;51.008;13.658;2023-04-03T01:34:23;100797.97;;;1.77;100.00
64292;BME280;50628;51.008;13.658;2023-04-03T01:39:25;100799.81;;;1.71;100.00
64292;BME280;50628;51.008;13.658;2023-04-03T01:44:27;100809.63;;;1.56;100.00
64292;BME280;50628;51.008;13.658;2023-04-03T01:49:31;100808.97;;;1.49;100.00
64292;BME280;50628;51.008;13.658;2023-04-03T01:54:33;100823.63;;;1.44;100.00
64292;BME280;50628;51.008;13.658;2023-04-03T01:59:35;100828.75;;;1.44;100.00
64292;BME280;50628;51.008;13.658;2023-04-03T02:04:38;100831.63;;;1.32;100.00
64292;BME280;50628;51.008;13.658;2023-04-03T02:09:40;100829.81;;;1.35;100.00
64292;BME280;50628;51.008;13.658;2023-04-03T02:14:43;100845.28;;;1.34;100.00
64292;BME280;50628;51.008;13.658;2023-04-03T02:19:47;100833.78;;;1.13;100.00
64292;BME280;50628;51.008;13.658;2023-04-03T02:24:49;100843.03;;;1.20;100.00
64292;BME280;50628;51.008;13.658;2023-04-03T02:29:52;100832.75;;;1.21;100.00
64292;BME280;50628;51.008;13.658;2023-04-03T02:34:55;100844.50;;;0.94;100.00
64292;BME280;50628;51.008;13.658;2023-04-03T02:39:57;100855.00;;;0.82;100.00
64292;BME280;50628;51.008;13.658;2023-04-03T02:45:02;100863.53;;;0.82;100.00
64292;BME280;50628;51.008;13.658;2023-04-03T02:50:07;100861.50;;;0.98;100.00
64292;BME280;50628;51.008;13.658;2023-04-03T02:55:13;100874.72;;;0.80;100.00
64292;BME280;50628;51.008;13.658;2023-04-03T03:00:16;100875.84;;;0.68;100.00
64292;BME280;50628;51.008;13.658;2023-04-03T03:05:19;100880.34;;;0.57;100.00
64292;BME280;50628;51.008;13.658;2023-04-03T03:10:22;100879.72;;;0.46;100.00
64292;BME280;50628;51.008;13.658;2023-04-03T03:15:24;100880.59;;;0.45;100.00
64292;BME280;50628;51.008;13.658;2023-04-03T03:20:27;100885.88;;;0.37;100.00
64292;BME280;50628;51.008;13.658;2023-04-03T03:25:29;100890.91;;;0.41;100.00
64292;BME280;50628;51.008;13.658;2023-04-03T03:30:31;100889.47;;;0.27;100.00
64292;BME280;50628;51.008;13.658;2023-04-03T03:35:35;100896.53;;;0.15;100.00
64292;BME280;50628;51.008;13.658;2023-04-03T03:40:37;100899.72;;;0.27;100.00
64292;BME280;50628;51.008;13.658;2023-04-03T03:45:39;100902.44;;;0.19;100.00
64292;BME280;50628;51.008;13.658;2023-04-03T03:50:42;100904.16;;;0.18;100.00
64292;BME280;50628;51.008;13.658;2023-04-03T03:55:45;100902.25;;;0.28;100.00
64292;BME280;50628;51.008;13.658;2023-04-03T04:00:47;100902.34;;;0.24;100.00
64292;BME280;50628;51.008;13.658;2023-04-03T04:05:51;100906.88;;;0.09;100.00
64292;BME280;50628;51.008;13.658;2023-04-03T04:10:53;100904.25;;;0.12;100.00
64292;BME280;50628;51.008;13.658;2023-04-03T04:15:55;100908.63;;;0.07;100.00
64292;BME280;50628;51.008;13.658;2023-04-03T04:20:58;100915.63;;;-0.03;100.00
64292;BME280;50628;51.008;13.658;2023-04-03T04:26:01;100922.50;;;-0.05;100.00
64292;BME280;50628;51.008;13.658;2023-04-03T04:31:07;100932.16;;;-0.20;100.00
64292;BME280;50628;51.008;13.658;2023-04-03T04:36:11;100935.44;;;-0.12;100.00
64292;BME280;50628;51.008;13.658;2023-04-03T04:41:16;100944.97;;;-0.22;100.00
64292;BME280;50628;51.008;13.658;2023-04-03T04:46:19;100950.88;;;-0.18;100.00
64292;BME280;50628;51.008;13.658;2023-04-03T04:51:28;100951.81;;;-0.23;100.00
64292;BME280;50628;51.008;13.658;2023-04-03T04:56:31;100962.13;;;-0.27;100.00
64292;BME280;50628;51.008;13.658;2023-04-03T05:01:34;100966.41;;;-0.28;100.00
64292;BME280;50628;51.008;13.658;2023-04-03T05:06:48;100965.78;;;-0.44;100.00
64292;BME280;50628;51.008;13.658;2023-04-03T05:11:55;100969.69;;;-0.21;100.00
64292;BME280;50628;51.008;13.658;2023-04-03T05:17:01;100972.03;;;-0.09;100.00
64292;BME280;50628;51.008;13.658;2023-04-03T05:22:07;100975.88;;;-0.34;100.00
64292;BME280;50628;51.008;13.658;2023-04-03T05:27:11;100975.00;;;-0.33;100.00
64292;BME280;50628;51.008;13.658;2023-04-03T05:32:17;100978.91;;;-0.11;100.00
64292;BME280;50628;51.008;13.658;2023-04-03T05:37:24;100975.56;;;-0.14;100.00
64292;BME280;50628;51.008;13.658;2023-04-03T05:42:28;100981.09;;;0.11;100.00
64292;BME280;50628;51.008;13.658;2023-04-03T05:47:30;100988.16;;;-0.04;100.00
64292;BME280;50628;51.008;13.658;2023-04-03T05:52:36;100985.41;;;0.07;100.00
64292;BME280;50628;51.008;13.658;2023-04-03T05:57:38;100994.63;;;0.17;100.00
64292;BME280;50628;51.008;13.658;2023-04-03T06:02:41;100997.38;;;0.07;100.00
64292;BME280;50628;51.008;13.658;2023-04-03T06:07:50;100988.41;;;-0.17;100.00
64292;BME280;50628;51.008;13.658;2023-04-03T06:12:51;100995.81;;;-0.02;100.00
64292;BME280;50628;51.008;13.658;2023-04-03T06:17:53;101000.22;;;-0.10;100.00
64292;BME280;50628;51.008;13.658;2023-04-03T06:22:57;100997.81;;;-0.21;100.00
64292;BME280;50628;51.008;13.658;2023-04-03T06:27:59;101002.81;;;-0.13;100.00
64292;BME280;50628;51.008;13.658;2023-04-03T06:33:01;101005.06;;;0.07;100.00
64292;BME280;50628;51.008;13.658;2023-04-03T06:38:04;101005.88;;;0.07;100.00
64292;BME280;50628;51.008;13.658;2023-04-03T06:43:09;101009.28;;;0.09;100.00
64292;BME280;50628;51.008;13.658;2023-04-03T06:48:12;101010.97;;;0.10;100.00
64292;BME280;50628;51.008;13.658;2023-04-03T06:53:15;101020.91;;;0.27;100.00
64292;BME280;50628;51.008;13.658;2023-04-03T06:58:17;101023.25;;;-0.10;100.00
64292;BME280;50628;51.008;13.658;2023-04-03T07:03:19;101025.97;;;-0.21;100.00
64292;BME280;50628;51.008;13.658;2023-04-03T07:08:23;101023.03;;;0.02;100.00
64292;BME280;50628;51.008;13.658;2023-04-03T07:13:26;101022.41;;;0.39;100.00
64292;BME280;50628;51.008;13.658;2023-04-03T07:18:28;101041.25;;;0.36;100.00
64292;BME280;50628;51.008;13.658;2023-04-03T07:23:31;101043.81;;;0.35;100.00
64292;BME280;50628;51.008;13.658;2023-04-03T07:28:33;101047.13;;;0.41;100.00
64292;BME280;50628;51.008;13.658;2023-04-03T07:33:36;101049.69;;;0.43;100.00
64292;BME280;50628;51.008;13.658;2023-04-03T07:38:39;101056.88;;;0.71;100.00
64292;BME280;50628;51.008;13.658;2023-04-03T07:43:41;101057.53;;;0.32;100.00
64292;BME280;50628;51.008;13.658;2023-04-03T07:48:43;101057.03;;;0.61;100.00
64292;BME280;50628;51.008;13.658;2023-04-03T07:53:46;101068.31;;;0.51;100.00
64292;BME280;50628;51.008;13.658;2023-04-03T07:58:49;101068.13;;;0.60;100.00
64292;BME280;50628;51.008;13.658;2023-04-03T08:03:51;101072.09;;;0.77;100.00
64292;BME280;50628;51.008;13.658;2023-04-03T08:08:54;101072.84;;;0.83;100.00
64292;BME280;50628;51.008;13.658;2023-04-03T08:13:56;101074.88;;;1.10;100.00
64292;BME280;50628;51.008;13.658;2023-04-03T08:18:58;101070.88;;;0.96;100.00
64292;BME280;50628;51.008;13.658;2023-04-03T08:24:02;101063.75;;;1.11;100.00
64292;BME280;50628;51.008;13.658;2023-04-03T08:29:04;101069.53;;;1.61;100.00
64292;BME280;50628;51.008;13.658;2023-04-03T08:34:06;101073.91;;;1.15;100.00
64292;BME280;50628;51.008;13.658;2023-04-03T08:39:11;101079.25;;;1.85;100.00
64292;BME280;50628;51.008;13.658;2023-04-03T08:44:17;101074.63;;;1.64;100.00
64292;BME280;50628;51.008;13.658;2023-04-03T08:49:26;101090.56;;;1.38;100.00
64292;BME280;50628;51.008;13.658;2023-04-03T08:54:33;101083.84;;;1.71;100.00
64292;BME280;50628;51.008;13.658;2023-04-03T08:59:37;101082.34;;;2.34;100.00
64292;BME280;50628;51.008;13.658;2023-04-03T09:04:39;101082.06;;;2.10;100.00
64292;BME280;50628;51.008;13.658;2023-04-03T09:09:43;101084.34;;;1.87;100.00
64292;BME280;50628;51.008;13.658;2023-04-03T09:14:55;101081.16;;;1.77;100.00
64292;BME280;50628;51.008;13.658;2023-04-03T09:20:10;101089.41;;;2.26;100.00
64292;BME280;50628;51.008;13.658;2023-04-03T09:25:19;101086.25;;;2.49;100.00
64292;BME280;50628;51.008;13.658;2023-04-03T09:30:24;101083.69;;;2.81;100.00
64292;BME280;50628;51.008;13.658;2023-04-03T09:35:27;101074.13;;;2.87;100.00
64292;BME280;50628;51.008;13.658;2023-04-03T09:40:37;101083.25;;;2.66;100.00
64292;BME280;50628;51.008;13.658;2023-04-03T09:45:39;101076.59;;;2.90;100.00
64292;BME280;50628;51.008;13.658;2023-04-03T09:50:54;101070.06;;;3.09;100.00
64292;BME280;50628;51.008;13.658;2023-04-03T09:56:02;101064.34;;;3.59;100.00
64292;BME280;50628;51.008;13.658;2023-04-03T10:01:04;101062.47;;;3.04;100.00
64292;BME280;50628;51.008;13.658;2023-04-03T10:06:22;101051.28;;;3.92;97.25
64292;BME280;50628;51.008;13.658;2023-04-03T10:11:26;101052.19;;;4.17;94.07
64292;BME280;50628;51.008;13.658;2023-04-03T10:16:34;101039.28;;;4.17;89.82
64292;BME280;50628;51.008;13.658;2023-04-03T10:21:42;101032.47;;;3.63;83.74
64292;BME280;50628;51.008;13.658;2023-04-03T10:26:53;101038.38;;;3.09;85.08
64292;BME280;50628;51.008;13.658;2023-04-03T10:32:03;101031.94;;;3.52;80.67
64292;BME280;50628;51.008;13.658;2023-04-03T10:37:17;101032.34;;;3.93;76.81
64292;BME280;50628;51.008;13.658;2023-04-03T10:42:28;101019.47;;;4.44;72.19
64292;BME280;50628;51.008;13.658;2023-04-03T10:47:40;101025.84;;;3.54;73.34
64292;BME280;50628;51.008;13.658;2023-04-03T10:52:48;101029.09;;;3.61;73.44
64292;BME280;50628;51.008;13.658;2023-04-03T10:57:59;101023.31;;;3.81;71.14
64292;BME280;50628;51.008;13.658;2023-04-03T11:03:03;101016.00;;;4.20;67.39
64292;BME280;50628;51.008;13.658;2023-04-03T11:08:13;101008.84;;;4.03;64.97
64292;BME280;50628;51.008;13.658;2023-04-03T11:13:22;100995.97;;;4.28;65.36
64292;BME280;50628;51.008;13.658;2023-04-03T11:18:28;100992.19;;;4.39;64.26
64292;BME280;50628;51.008;13.658;2023-04-03T11:23:35;100997.13;;;4.45;61.92
64292;BME280;50628;51.008;13.658;2023-04-03T11:28:39;100993.59;;;4.71;60.57
64292;BME280;50628;51.008;13.658;2023-04-03T11:33:47;100996.13;;;4.24;60.97
64292;BME280;50628;51.008;13.658;2023-04-03T11:38:54;100988.06;;;4.33;61.42
64292;BME280;50628;51.008;13.658;2023-04-03T11:44:00;100984.59;;;4.59;61.95
64292;BME280;50628;51.008;13.658;2023-04-03T11:49:02;100981.13;;;5.29;60.46
64292;BME280;50628;51.008;13.658;2023-04-03T11:59:44;100971.38;;;4.18;58.85
64292;BME280;50628;51.008;13.658;2023-04-03T12:05:26;100978.09;;;4.24;59.31
64292;BME280;50628;51.008;13.658;2023-04-03T12:10:28;100974.06;;;4.15;58.50
64292;BME280;50628;51.008;13.658;2023-04-03T12:15:52;100972.06;;;4.48;60.47
64292;BME280;50628;51.008;13.658;2023-04-03T12:20:56;100965.47;;;4.16;61.26
64292;BME280;50628;51.008;13.658;2023-04-03T12:26:05;100974.97;;;4.39;59.34
64292;BME280;50628;51.008;13.658;2023-04-03T12:31:24;100965.50;;;4.15;58.17
64292;BME280;50628;51.008;13.658;2023-04-03T12:36:33;100976.25;;;4.98;57.77
64292;BME280;50628;51.008;13.658;2023-04-03T12:41:46;100958.44;;;4.68;58.01
64292;BME280;50628;51.008;13.658;2023-04-03T12:46:54;100966.75;;;4.28;59.81
64292;BME280;50628;51.008;13.658;2023-04-03T12:51:56;100959.50;;;4.39;59.58
64292;BME280;50628;51.008;13.658;2023-04-03T12:57:11;100960.63;;;4.32;60.09
64292;BME280;50628;51.008;13.658;2023-04-03T13:02:21;100959.97;;;4.74;57.31
64292;BME280;50628;51.008;13.658;2023-04-03T13:07:28;100966.47;;;5.30;60.44
64292;BME280;50628;51.008;13.658;2023-04-03T13:12:32;100969.44;;;4.73;60.95
64292;BME280;50628;51.008;13.658;2023-04-03T13:17:39;100976.34;;;4.73;62.11
64292;BME280;50628;51.008;13.658;2023-04-03T13:22:48;100966.47;;;4.61;59.98
64292;BME280;50628;51.008;13.658;2023-04-03T13:27:51;100968.19;;;5.07;60.58
64292;BME280;50628;51.008;13.658;2023-04-03T13:32:56;100965.25;;;5.38;59.25
64292;BME280;50628;51.008;13.658;2023-04-03T13:38:01;100963.44;;;5.18;57.25
64292;BME280;50628;51.008;13.658;2023-04-03T13:43:06;100950.59;;;4.95;58.25
64292;BME280;50628;51.008;13.658;2023-04-03T13:48:16;100947.84;;;4.99;59.26
64292;BME280;50628;51.008;13.658;2023-04-03T13:53:19;100954.59;;;4.57;57.60
64292;BME280;50628;51.008;13.658;2023-04-03T13:58:22;100952.81;;;5.26;55.50
64292;BME280;50628;51.008;13.658;2023-04-03T14:03:30;100938.47;;;5.41;55.69
64292;BME280;50628;51.008;13.658;2023-04-03T14:08:32;100934.69;;;5.28;57.22
64292;BME280;50628;51.008;13.658;2023-04-03T14:13:34;100942.88;;;4.71;57.51
64292;BME280;50628;51.008;13.658;2023-04-03T14:18:37;100938.06;;;4.62;57.38
64292;BME280;50628;51.008;13.658;2023-04-03T14:23:39;100937.69;;;4.48;57.98
64292;BME280;50628;51.008;13.658;2023-04-03T14:28:42;100948.72;;;4.76;58.45
64292;BME280;50628;51.008;13.658;2023-04-03T14:33:45;100947.06;;;4.50;59.49
64292;BME280;50628;51.008;13.658;2023-04-03T14:38:49;100946.50;;;4.42;57.53
64292;BME280;50628;51.008;13.658;2023-04-03T14:43:51;100942.88;;;4.23;57.87
64292;BME280;50628;51.008;13.658;2023-04-03T14:48:55;100939.88;;;3.85;58.93
64292;BME280;50628;51.008;13.658;2023-04-03T14:53:56;100951.25;;;4.53;60.33
64292;BME280;50628;51.008;13.658;2023-04-03T14:59:00;100949.63;;;4.27;59.71
64292;BME280;50628;51.008;13.658;2023-04-03T15:04:10;100945.09;;;4.33;59.85
64292;BME280;50628;51.008;13.658;2023-04-03T15:09:19;100939.44;;;4.24;58.91
64292;BME280;50628;51.008;13.658;2023-04-03T15:14:22;100944.47;;;4.50;57.89
64292;BME280;50628;51.008;13.658;2023-04-03T15:19:25;100940.03;;;5.01;56.74
64292;BME280;50628;51.008;13.658;2023-04-03T15:24:27;100934.44;;;4.90;57.12
64292;BME280;50628;51.008;13.658;2023-04-03T15:29:29;100922.34;;;4.68;57.41
64292;BME280;50628;51.008;13.658;2023-04-03T15:34:32;100931.31;;;4.82;57.93
64292;BME280;50628;51.008;13.658;2023-04-03T15:39:34;100920.50;;;4.48;55.46
64292;BME280;50628;51.008;13.658;2023-04-03T15:44:36;100938.56;;;4.23;56.31
64292;BME280;50628;51.008;13.658;2023-04-03T15:49:39;100936.22;;;4.17;57.90
64292;BME280;50628;51.008;13.658;2023-04-03T15:54:41;100938.84;;;4.64;57.69
64292;BME280;50628;51.008;13.658;2023-04-03T15:59:43;100938.81;;;4.41;58.63
64292;BME280;50628;51.008;13.658;2023-04-03T16:04:46;100933.38;;;4.25;57.19
64292;BME280;50628;51.008;13.658;2023-04-03T16:09:48;100949.50;;;3.80;58.74
64292;BME280;50628;51.008;13.658;2023-04-03T16:14:50;100945.56;;;3.69;60.32
64292;BME280;50628;51.008;13.658;2023-04-03T16:19:55;100937.34;;;3.58;60.31
64292;BME280;50628;51.008;13.658;2023-04-03T16:24:57;100941.16;;;3.73;60.80
64292;BME280;50628;51.008;13.658;2023-04-03T16:29:59;100944.72;;;3.69;60.34
64292;BME280;50628;51.008;13.658;2023-04-03T16:35:03;100946.50;;;3.40;59.81
64292;BME280;50628;51.008;13.658;2023-04-03T16:40:07;100942.22;;;3.39;60.10
64292;BME280;50628;51.008;13.658;2023-04-03T16:45:09;100948.09;;;3.16;60.07
64292;BME280;50628;51.008;13.658;2023-04-03T16:50:13;100947.50;;;3.63;60.53
64292;BME280;50628;51.008;13.658;2023-04-03T16:55:15;100941.16;;;3.73;60.01
64292;BME280;50628;51.008;13.658;2023-04-03T17:00:17;100946.19;;;3.23;58.84
64292;BME280;50628;51.008;13.658;2023-04-03T17:05:21;100946.25;;;3.20;59.16
64292;BME280;50628;51.008;13.658;2023-04-03T17:10:25;100952.06;;;2.98;58.38
64292;BME280;50628;51.008;13.658;2023-04-03T17:15:27;100947.25;;;2.88;56.32
64292;BME280;50628;51.008;13.658;2023-04-03T17:20:30;100954.09;;;2.87;58.39
64292;BME280;50628;51.008;13.658;2023-04-03T17:25:34;100967.16;;;2.81;58.42
64292;BME280;50628;51.008;13.658;2023-04-03T17:30:35;100966.13;;;2.87;56.21
64292;BME280;50628;51.008;13.658;2023-04-03T17:35:39;100969.50;;;2.89;57.57
64292;BME280;50628;51.008;13.658;2023-04-03T17:40:41;100972.00;;;2.60;57.95
64292;BME280;50628;51.008;13.658;2023-04-03T17:45:44;100977.16;;;2.60;58.67
64292;BME280;50628;51.008;13.658;2023-04-03T17:50:47;100977.88;;;2.66;59.51
64292;BME280;50628;51.008;13.658;2023-04-03T17:55:49;100985.88;;;2.55;59.73
64292;BME280;50628;51.008;13.658;2023-04-03T18:00:51;100983.91;;;2.65;58.96
64292;BME280;50628;51.008;13.658;2023-04-03T18:05:55;100981.69;;;2.82;59.00
64292;BME280;50628;51.008;13.658;2023-04-03T18:10:57;100979.91;;;2.84;59.26
64292;BME280;50628;51.008;13.658;2023-04-03T18:15:59;100983.31;;;2.55;59.93
64292;BME280;50628;51.008;13.658;2023-04-03T18:21:02;100979.81;;;2.57;60.26
64292;BME280;50628;51.008;13.658;2023-04-03T18:26:06;100978.94;;;2.88;63.38
64292;BME280;50628;51.008;13.658;2023-04-03T18:31:10;100982.19;;;2.64;62.70
64292;BME280;50628;51.008;13.658;2023-04-03T18:36:16;100979.31;;;2.45;62.95
64292;BME280;50628;51.008;13.658;2023-04-03T18:41:19;100980.59;;;2.28;63.34
64292;BME280;50628;51.008;13.658;2023-04-03T18:46:22;100989.31;;;2.54;63.27
64292;BME280;50628;51.008;13.658;2023-04-03T18:51:25;100978.13;;;2.56;67.58
64292;BME280;50628;51.008;13.658;2023-04-03T18:56:27;100978.22;;;2.21;74.03
64292;BME280;50628;51.008;13.658;2023-04-03T19:01:29;100976.94;;;2.04;86.44
64292;BME280;50628;51.008;13.658;2023-04-03T19:06:33;100974.31;;;2.06;83.50
64292;BME280;50628;51.008;13.658;2023-04-03T19:11:36;100964.25;;;2.31;79.97
64292;BME280;50628;51.008;13.658;2023-04-03T19:16:37;100970.94;;;2.36;81.50
64292;BME280;50628;51.008;13.658;2023-04-03T19:21:41;100979.63;;;2.32;80.32
64292;BME280;50628;51.008;13.658;2023-04-03T19:26:43;100976.16;;;2.33;85.06
64292;BME280;50628;51.008;13.658;2023-04-03T19:31:45;100969.78;;;2.17;85.12
64292;BME280;50628;51.008;13.658;2023-04-03T19:36:48;100974.28;;;2.40;92.21
64292;BME280;50628;51.008;13.658;2023-04-03T19:41:51;100968.59;;;2.29;95.78
64292;BME280;50628;51.008;13.658;2023-04-03T19:46:53;100970.53;;;2.52;96.71
64292;BME280;50628;51.008;13.658;2023-04-03T19:57:12;100964.63;;;2.48;82.36
64292;BME280;50628;51.008;13.658;2023-04-03T20:02:14;100969.09;;;2.42;83.95
64292;BME280;50628;51.008;13.658;2023-04-03T20:07:18;100962.88;;;2.50;87.62
64292;BME280;50628;51.008;13.658;2023-04-03T20:12:21;100961.03;;;2.55;83.07
64292;BME280;50628;51.008;13.658;2023-04-03T20:17:23;100965.16;;;2.59;74.89
64292;BME280;50628;51.008;13.658;2023-04-03T20:22:26;100960.03;;;2.89;77.62
64292;BME280;50628;51.008;13.658;2023-04-03T20:27:30;100955.38;;;2.43;74.33
64292;BME280;50628;51.008;13.658;2023-04-03T20:32:32;100961.81;;;2.26;76.20
64292;BME280;50628;51.008;13.658;2023-04-03T20:37:34;100955.31;;;2.13;78.02
64292;BME280;50628;51.008;13.658;2023-04-03T20:42:38;100954.78;;;2.00;82.07
64292;BME280;50628;51.008;13.658;2023-04-03T20:47:40;100957.56;;;1.91;88.34
64292;BME280;50628;51.008;13.658;2023-04-03T20:52:42;100944.91;;;1.85;92.86
64292;BME280;50628;51.008;13.658;2023-04-03T20:57:46;100939.47;;;1.97;95.04
64292;BME280;50628;51.008;13.658;2023-04-03T21:02:47;100946.75;;;1.80;97.74
64292;BME280;50628;51.008;13.658;2023-04-03T21:19:12;100940.50;;;1.90;100.00
64292;BME280;50628;51.008;13.658;2023-04-03T21:24:16;100940.06;;;2.07;100.00
64292;BME280;50628;51.008;13.658;2023-04-03T21:29:18;100937.34;;;2.13;100.00
64292;BME280;50628;51.008;13.658;2023-04-03T21:34:22;100944.28;;;2.09;100.00
64292;BME280;50628;51.008;13.658;2023-04-03T21:39:25;100936.63;;;2.08;100.00
64292;BME280;50628;51.008;13.658;2023-04-03T21:44:27;100945.41;;;1.99;100.00
64292;BME280;50628;51.008;13.658;2023-04-03T21:49:31;100945.97;;;2.10;100.00
64292;BME280;50628;51.008;13.658;2023-04-03T21:54:33;100935.06;;;2.02;100.00
64292;BME280;50628;51.008;13.658;2023-04-03T21:59:35;100933.31;;;2.35;100.00
64292;BME280;50628;51.008;13.658;2023-04-03T22:04:38;100928.50;;;2.23;100.00
64292;BME280;50628;51.008;13.658;2023-04-03T22:09:40;100930.34;;;2.18;100.00
64292;BME280;50628;51.008;13.658;2023-04-03T22:14:42;100918.44;;;2.15;100.00
64292;BME280;50628;51.008;13.658;2023-04-03T22:19:45;100930.03;;;2.29;100.00
64292;BME280;50628;51.008;13.658;2023-04-03T22:24:47;100927.47;;;2.29;100.00
64292;BME280;50628;51.008;13.658;2023-04-03T22:29:49;100921.38;;;2.33;100.00
64292;BME280;50628;51.008;13.658;2023-04-03T22:34:52;100916.13;;;2.37;100.00
64292;BME280;50628;51.008;13.658;2023-04-03T22:39:54;100917.06;;;2.35;100.00
64292;BME280;50628;51.008;13.658;2023-04-03T22:44:56;100913.31;;;2.14;100.00
64292;BME280;50628;51.008;13.658;2023-04-03T22:50:00;100911.44;;;2.21;100.00
64292;BME280;50628;51.008;13.658;2023-04-03T22:55:02;100911.59;;;2.46;100.00
64292;BME280;50628;51.008;13.658;2023-04-03T23:00:05;100908.94;;;2.49;100.00
64292;BME280;50628;51.008;13.658;2023-04-03T23:05:09;100907.72;;;2.62;100.00
64292;BME280;50628;51.008;13.658;2023-04-03T23:10:11;100900.88;;;2.31;100.00
64292;BME280;50628;51.008;13.658;2023-04-03T23:15:12;100907.03;;;2.26;100.00
64292;BME280;50628;51.008;13.658;2023-04-03T23:20:18;100910.09;;;2.38;100.00
64292;BME280;50628;51.008;13.658;2023-04-03T23:25:20;100906.88;;;2.32;100.00
64292;BME280;50628;51.008;13.658;2023-04-03T23:30:22;100905.47;;;2.20;100.00
64292;BME280;50628;51.008;13.658;2023-04-03T23:35:25;100902.28;;;2.12;100.00
64292;BME280;50628;51.008;13.658;2023-04-03T23:40:27;100900.47;;;1.83;100.00
64292;BME280;50628;51.008;13.658;2023-04-03T23:45:29;100901.28;;;1.83;100.00
64292;BME280;50628;51.008;13.658;2023-04-03T23:50:33;100886.00;;;1.79;100.00
64292;BME280;50628;51.008;13.658;2023-04-03T23:55:36;100898.22;;;2.03;100.00
